createdAt,value
2023-02-11T00:03:21.776Z,51.07
2023-02-11T00:17:16.696Z,49.47
2023-02-11T00:27:50.155Z,43.03
2023-02-11T00:37:21.842Z,45.83
2023-02-11T00:40:36.398Z,43.47
2023-02-11T00:44:02.215Z,45.50
2023-02-11T00:47:05.267Z,52.67
2023-02-11T00:51:08.835Z,41.27
2023-02-11T00:53:51.749Z,44.60
2023-02-11T01:04:15.471Z,59.20
2023-02-11T01:07:18.009Z,45.63
2023-02-11T01:13:57.474Z,50.07
2023-02-11T01:16:40.806Z,46.80
2023-02-11T01:23:38.244Z,43.87
2023-02-11T01:26:22.134Z,40.20
2023-02-11T01:33:10.667Z,43.67
2023-02-11T01:36:48.217Z,39.53
2023-02-11T01:40:17.742Z,38.83
2023-02-11T01:43:55.358Z,42.23
2023-02-11T01:47:14.009Z,45.33
2023-02-11T01:50:46.773Z,41.83
2023-02-11T01:53:49.122Z,46.80
2023-02-11T02:01:26.135Z,42.67
2023-02-11T02:07:46.840Z,39.27
2023-02-11T02:17:24.595Z,36.43
2023-02-11T02:21:21.682Z,43.60
2023-02-11T02:29:39.828Z,40.10
2023-02-11T02:36:59.332Z,39.53
2023-02-11T02:43:22.005Z,42.87
2023-02-11T02:58:55.757Z,45.23
2023-02-11T03:01:30.076Z,55.17
2023-02-11T03:04:59.876Z,38.20
2023-02-11T03:08:15.668Z,50.27
2023-02-11T03:11:30.762Z,51.20
2023-02-11T03:21:17.416Z,46.33
2023-02-11T03:24:35.004Z,44.67
2023-02-11T03:27:55.210Z,44.63
2023-02-11T03:31:36.602Z,46.87
2023-02-11T03:39:01.008Z,43.50
2023-02-11T03:42:11.931Z,47.83
2023-02-11T03:45:27.333Z,43.30
2023-02-11T03:48:56.716Z,45.23
2023-02-11T03:52:03.440Z,46.20
2023-02-11T03:55:54.162Z,50.70
2023-02-11T03:58:46.835Z,54.73
2023-02-11T04:02:08.356Z,50.53
2023-02-11T04:05:13.475Z,46.37
2023-02-11T04:11:54.523Z,52.23
2023-02-11T04:14:56.908Z,48.27
2023-02-11T04:18:05.068Z,44.57
2023-02-11T04:21:01.715Z,54.73
2023-02-11T04:42:12.104Z,46.77
2023-02-11T04:45:18.316Z,54.20
2023-02-11T04:56:46.490Z,53.33
2023-02-11T05:19:17.631Z,56.57
2023-02-11T05:22:02.015Z,51.80
2023-02-11T05:25:59.581Z,59.17
2023-02-11T05:28:47.312Z,53.70
2023-02-11T05:39:03.847Z,57.80
2023-02-11T05:40:40.717Z,69.80
2023-02-11T05:41:56.080Z,61.40
2023-02-11T05:44:55.274Z,54.30
2023-02-11T05:47:37.185Z,53.20
2023-02-11T05:50:11.241Z,58.60
2023-02-11T05:52:46.690Z,56.83
2023-02-11T05:55:53.203Z,56.03
2023-02-11T05:58:47.086Z,59.70
2023-02-11T06:01:44.912Z,63.00
2023-02-11T06:04:40.003Z,55.67
2023-02-11T06:07:54.833Z,63.27
2023-02-11T06:16:50.036Z,59.30
2023-02-11T06:19:52.055Z,69.00
2023-02-11T06:22:46.772Z,68.40
2023-02-11T06:25:39.532Z,58.10
2023-02-11T06:28:15.997Z,59.23
2023-02-11T06:30:48.489Z,64.67
2023-02-11T06:33:49.684Z,62.20
2023-02-11T06:36:44.416Z,60.87
2023-02-11T06:39:21.480Z,63.37
2023-02-11T06:41:57.332Z,61.03
2023-02-11T06:44:36.345Z,62.27
2023-02-11T06:47:13.422Z,64.43
2023-02-11T06:50:14.814Z,61.60
2023-02-11T06:53:18.933Z,64.87
2023-02-11T06:56:32.566Z,73.07
2023-02-11T06:59:27.872Z,66.30
2023-02-11T07:01:56.452Z,63.47
2023-02-11T07:04:32.799Z,63.27
2023-02-11T07:07:09.470Z,64.73
2023-02-11T07:09:45.431Z,68.77
2023-02-11T07:12:18.121Z,72.13
2023-02-11T07:14:54.779Z,69.90
2023-02-11T07:17:34.184Z,73.43
2023-02-11T07:20:41.925Z,80.80
2023-02-11T07:24:02.351Z,64.70
2023-02-11T07:26:43.286Z,72.23
2023-02-11T07:32:38.697Z,64.00
2023-02-11T07:35:32.948Z,62.53
2023-02-11T07:39:02.526Z,68.77
2023-02-11T07:45:29.410Z,65.70
2023-02-11T07:48:06.272Z,63.77
2023-02-11T07:50:45.371Z,59.97
2023-02-11T07:53:21.361Z,59.47
2023-02-11T07:56:13.810Z,72.03
2023-02-11T08:03:06.789Z,65.70
2023-02-11T08:06:35.149Z,90.30
2023-02-11T08:09:22.194Z,69.57
2023-02-11T08:12:24.932Z,61.40
2023-02-11T08:22:35.687Z,62.80
2023-02-11T08:25:38.076Z,59.07
2023-02-11T08:28:58.952Z,74.50
2023-02-11T08:31:49.380Z,73.17
2023-02-11T08:35:17.754Z,62.47
2023-02-11T08:42:38.463Z,58.00
2023-02-11T08:51:46.566Z,67.10
2023-02-11T08:55:12.699Z,62.80
2023-02-11T08:58:19.192Z,57.70
2023-02-11T09:01:41.238Z,58.37
2023-02-11T09:05:39.876Z,61.87
2023-02-11T09:08:33.545Z,64.60
2023-02-11T09:12:18.720Z,58.17
2023-02-11T09:19:06.437Z,53.43
2023-02-11T09:22:04.394Z,57.10
2023-02-11T09:24:51.747Z,74.70
2023-02-11T09:28:07.215Z,61.83
2023-02-11T09:35:02.286Z,51.30
2023-02-11T09:38:00.373Z,50.33
2023-02-11T09:45:23.476Z,52.93
2023-02-11T09:48:38.527Z,49.67
2023-02-11T09:52:08.556Z,56.37
2023-02-11T09:55:57.211Z,52.07
2023-02-11T09:59:05.136Z,50.00
2023-02-11T10:02:11.683Z,56.60
2023-02-11T10:06:15.721Z,54.60
2023-02-11T10:11:30.599Z,63.60
2023-02-11T10:17:50.354Z,58.27
2023-02-11T10:28:25.642Z,60.40
2023-02-11T10:35:06.235Z,60.83
2023-02-11T10:37:31.345Z,53.60
2023-02-11T10:40:47.375Z,52.30
2023-02-11T10:44:10.844Z,44.97
2023-02-11T10:50:36.507Z,47.17
2023-02-11T10:53:35.390Z,49.47
2023-02-11T11:00:36.282Z,42.30
2023-02-11T11:03:41.692Z,98.30
2023-02-11T11:07:24.525Z,59.60
2023-02-11T11:11:13.118Z,50.20
2023-02-11T11:18:49.968Z,47.77
2023-02-11T11:25:46.073Z,50.60
2023-02-11T11:29:27.988Z,38.50
2023-02-11T11:32:35.216Z,31.47
2023-02-11T11:35:32.165Z,38.40
2023-02-11T11:38:31.876Z,41.53
2023-02-11T11:41:38.408Z,43.93
2023-02-11T11:44:39.918Z,40.10
2023-02-11T11:47:17.237Z,42.10
2023-02-11T11:51:05.771Z,36.73
2023-02-11T11:54:07.169Z,39.43
2023-02-11T11:57:08.730Z,36.50
2023-02-11T11:59:46.158Z,42.13
2023-02-11T12:03:46.813Z,29.47
2023-02-11T12:07:31.876Z,33.77
2023-02-11T12:10:46.026Z,32.13
2023-02-11T12:13:41.223Z,37.50
2023-02-11T12:16:57.668Z,34.53
2023-02-11T12:19:33.823Z,38.73
2023-02-11T12:22:19.536Z,37.63
2023-02-11T12:25:08.955Z,29.83
2023-02-11T12:27:45.254Z,29.77
2023-02-11T12:31:04.660Z,27.23
2023-02-11T12:34:28.073Z,30.80
2023-02-11T12:37:42.143Z,28.20
2023-02-11T12:40:38.709Z,29.30
2023-02-11T12:43:24.854Z,26.33
2023-02-11T12:46:58.181Z,28.60
2023-02-11T12:49:45.508Z,26.30
2023-02-11T12:52:29.236Z,25.30
2023-02-11T12:55:07.820Z,26.20
2023-02-11T12:57:38.281Z,26.60
2023-02-11T13:00:19.133Z,26.90
2023-02-11T13:02:56.577Z,29.07
2023-02-11T13:05:33.963Z,37.23
2023-02-11T13:08:29.233Z,22.63
2023-02-11T13:11:14.431Z,28.70
2023-02-11T13:13:54.881Z,25.77
2023-02-11T13:16:37.055Z,25.73
2023-02-11T13:19:13.218Z,32.83
2023-02-11T13:22:19.384Z,27.23
2023-02-11T13:25:32.325Z,23.90
2023-02-11T13:28:32.412Z,24.93
2023-02-11T13:31:03.611Z,25.60
2023-02-11T13:33:35.552Z,25.57
2023-02-11T13:36:04.555Z,21.07
2023-02-11T13:38:33.037Z,30.10
2023-02-11T13:41:38.552Z,21.73
2023-02-11T13:44:11.561Z,24.80
2023-02-11T13:47:06.782Z,24.50
2023-02-11T13:49:41.664Z,26.83
2023-02-11T13:52:33.940Z,24.97
2023-02-11T13:55:21.945Z,33.43
2023-02-11T13:58:10.113Z,33.50
2023-02-11T14:00:36.967Z,38.83
2023-02-11T14:03:31.739Z,22.80
2023-02-11T14:06:29.205Z,21.73
2023-02-11T14:09:14.379Z,23.87
2023-02-11T14:11:41.738Z,25.37
2023-02-11T14:14:24.398Z,24.27
2023-02-11T14:17:00.580Z,36.07
2023-02-11T14:19:41.802Z,24.57
2023-02-11T14:22:23.737Z,23.70
2023-02-11T14:24:54.868Z,23.00
2023-02-11T14:27:34.167Z,20.97
2023-02-11T14:30:33.643Z,25.27
2023-02-11T14:33:41.029Z,24.37
2023-02-11T14:36:35.414Z,40.57
2023-02-11T14:39:26.489Z,43.33
2023-02-11T14:41:54.585Z,19.70
2023-02-11T14:44:30.490Z,21.67
2023-02-11T14:46:58.069Z,22.13
2023-02-11T14:49:37.343Z,37.93
2023-02-11T14:52:25.432Z,19.07
2023-02-11T14:55:02.202Z,16.83
2023-02-11T14:57:29.768Z,14.40
2023-02-11T15:00:05.214Z,17.30
2023-02-11T15:02:38.839Z,20.43
2023-02-11T15:05:27.546Z,22.33
2023-02-11T15:08:02.106Z,12.83
2023-02-11T15:10:41.057Z,22.70
2023-02-11T15:13:09.402Z,13.67
2023-02-11T15:15:40.897Z,12.87
2023-02-11T15:18:09.687Z,18.53
2023-02-11T15:20:37.024Z,25.23
2023-02-11T15:23:11.017Z,15.47
2023-02-11T15:25:51.115Z,12.10
2023-02-11T15:28:34.415Z,10.70
2023-02-11T15:31:18.053Z,15.90
2023-02-11T15:33:45.090Z,12.70
2023-02-11T15:36:14.401Z,13.90
2023-02-11T15:38:41.584Z,16.70
2023-02-11T15:41:37.958Z,10.20
2023-02-11T15:44:05.054Z,11.97
2023-02-11T15:46:40.116Z,11.50
2023-02-11T15:49:08.612Z,16.27
2023-02-11T15:51:37.825Z,13.87
2023-02-11T15:54:29.449Z,11.20
2023-02-11T15:57:07.147Z,10.80
2023-02-11T15:59:39.191Z,30.97
2023-02-11T16:02:18.998Z,19.10
2023-02-11T16:04:59.726Z,10.77
2023-02-11T16:07:53.147Z,10.23
2023-02-11T16:10:35.976Z,11.33
2023-02-11T16:13:09.253Z,10.90
2023-02-11T16:16:11.054Z,16.67
2023-02-11T16:18:40.502Z,11.13
2023-02-11T16:21:18.055Z,10.13
2023-02-11T16:23:53.808Z,10.77
2023-02-11T16:26:33.095Z,9.67
2023-02-11T16:29:31.216Z,10.60
2023-02-11T16:32:22.604Z,15.23
2023-02-11T16:34:50.683Z,10.10
2023-02-11T16:37:17.986Z,8.83
2023-02-11T16:39:45.017Z,8.33
2023-02-11T16:42:12.896Z,8.90
2023-02-11T16:44:39.866Z,13.33
2023-02-11T16:47:17.537Z,9.93
2023-02-11T16:49:44.537Z,12.00
2023-02-11T16:52:16.330Z,8.37
2023-02-11T16:54:43.411Z,9.03
2023-02-11T16:57:20.481Z,9.17
2023-02-11T16:59:48.026Z,9.70
2023-02-11T17:02:36.498Z,10.27
2023-02-11T17:05:08.959Z,9.60
2023-02-11T17:07:35.946Z,8.73
2023-02-11T17:10:03.298Z,20.60
2023-02-11T17:12:30.301Z,46.47
2023-02-11T17:14:57.295Z,10.53
2023-02-11T17:17:24.302Z,10.70
2023-02-11T17:19:51.359Z,9.47
2023-02-11T17:22:18.905Z,9.10
2023-02-11T17:24:46.043Z,10.80
2023-02-11T17:27:13.429Z,11.30
2023-02-11T17:29:40.356Z,10.10
2023-02-11T17:32:07.390Z,14.77
2023-02-11T17:34:34.472Z,11.53
2023-02-11T17:37:07.612Z,8.60
2023-02-11T17:39:38.869Z,10.43
2023-02-11T17:42:07.129Z,10.77
2023-02-11T17:44:34.459Z,10.77
2023-02-11T17:47:01.371Z,10.77
2023-02-11T17:49:28.508Z,9.70
2023-02-11T17:51:55.440Z,9.00
2023-02-11T17:54:22.560Z,8.70
2023-02-11T17:56:50.773Z,10.70
2023-02-11T17:59:18.190Z,24.97
2023-02-11T18:01:45.279Z,55.73
2023-02-11T18:04:18.824Z,22.00
2023-02-11T18:06:46.494Z,33.27
2023-02-11T18:09:13.863Z,12.27
2023-02-11T18:11:41.925Z,62.67
2023-02-11T18:14:10.480Z,40.17
2023-02-11T18:16:39.789Z,10.33
2023-02-11T18:19:07.723Z,27.47
2023-02-11T18:21:35.018Z,9.27
2023-02-11T18:24:06.555Z,8.40
2023-02-11T18:26:34.772Z,8.67
2023-02-11T18:29:11.386Z,11.40
2023-02-11T18:31:55.439Z,8.57
2023-02-11T18:35:22.383Z,9.83
2023-02-11T18:41:20.920Z,17.70
2023-02-11T18:43:53.930Z,9.00
2023-02-11T18:50:49.490Z,20.60
2023-02-11T18:53:39.934Z,10.53
2023-02-11T18:59:49.097Z,13.40
2023-02-11T19:02:22.172Z,7.70
2023-02-11T19:04:53.149Z,8.53
2023-02-11T19:07:35.404Z,8.50
2023-02-11T19:10:18.779Z,8.20
2023-02-11T19:12:56.725Z,8.10
2023-02-11T19:15:33.063Z,8.33
2023-02-11T19:18:14.934Z,8.27
2023-02-11T19:20:57.835Z,10.93
2023-02-11T19:23:58.384Z,8.43
2023-02-11T19:26:53.637Z,9.00
2023-02-11T19:30:00.427Z,9.10
2023-02-11T19:32:45.018Z,8.40
2023-02-11T19:35:26.903Z,18.30
2023-02-11T19:38:38.418Z,15.93
2023-02-11T19:41:26.761Z,9.03
2023-02-11T19:44:33.004Z,9.80
2023-02-11T19:47:12.909Z,8.10
2023-02-11T19:50:03.084Z,10.17
2023-02-11T19:57:27.591Z,8.90
2023-02-11T20:00:36.991Z,11.30
2023-02-11T20:06:32.990Z,8.83
2023-02-11T20:09:16.075Z,9.77
2023-02-11T20:11:47.041Z,8.50
2023-02-11T20:14:31.493Z,8.60
2023-02-11T20:17:02.459Z,9.13
2023-02-11T20:19:47.917Z,9.60
2023-02-11T20:23:23.062Z,8.70
2023-02-11T20:25:59.686Z,9.20
2023-02-11T20:28:42.242Z,9.67
2023-02-11T20:31:21.895Z,7.60
2023-02-11T20:33:57.051Z,7.73
2023-02-11T20:37:05.930Z,8.13
2023-02-11T20:49:29.199Z,7.57
2023-02-11T20:52:02.918Z,10.63
2023-02-11T20:54:42.827Z,7.30
2023-02-11T20:57:18.149Z,7.00
2023-02-11T20:59:53.597Z,7.63
2023-02-11T21:02:24.643Z,7.57
2023-02-11T21:05:17.548Z,9.37
2023-02-11T21:08:06.445Z,12.90
2023-02-11T21:11:21.431Z,40.67
2023-02-11T21:14:00.866Z,19.50
2023-02-11T21:16:32.110Z,6.70
2023-02-11T21:19:01.120Z,12.03
2023-02-11T21:21:34.933Z,7.93
2023-02-11T21:24:06.316Z,12.37
2023-02-11T21:26:48.548Z,8.33
2023-02-11T21:29:18.696Z,13.57
2023-02-11T21:31:56.835Z,8.00
2023-02-11T21:34:30.476Z,8.97
2023-02-11T21:37:32.421Z,9.93
2023-02-11T21:40:31.907Z,8.83
2023-02-11T21:43:40.133Z,15.73
2023-02-11T21:52:49.576Z,11.83
2023-02-11T21:55:43.048Z,12.73
2023-02-11T21:58:24.979Z,13.20
2023-02-11T22:01:30.313Z,12.63
2023-02-11T22:04:17.684Z,16.13
2023-02-11T22:07:12.061Z,11.70
2023-02-11T22:13:18.187Z,16.03
2023-02-11T22:14:59.374Z,9.23
2023-02-11T22:17:42.747Z,39.30
2023-02-11T22:34:38.722Z,9.73
2023-02-11T22:37:19.887Z,13.80
2023-02-11T22:40:54.795Z,15.20
2023-02-11T22:43:36.308Z,15.00
2023-02-11T22:46:18.761Z,17.77
2023-02-11T22:49:02.063Z,30.07
2023-02-11T22:51:37.381Z,10.80
2023-02-11T22:54:15.598Z,12.30
2023-02-11T22:56:52.150Z,15.20
2023-02-11T22:59:26.471Z,14.27
2023-02-11T23:02:20.749Z,13.80
2023-02-11T23:05:10.560Z,11.90
2023-02-11T23:08:50.032Z,12.53
2023-02-11T23:11:31.920Z,11.00
2023-02-11T23:14:46.638Z,12.70
2023-02-11T23:18:00.702Z,11.83
2023-02-11T23:21:06.470Z,19.60
2023-02-11T23:26:41.362Z,16.80
2023-02-11T23:29:08.788Z,14.20
2023-02-11T23:31:40.328Z,9.10
2023-02-11T23:34:08.907Z,10.57
2023-02-11T23:36:36.303Z,11.87
2023-02-11T23:39:03.629Z,16.77
2023-02-11T23:41:30.771Z,17.67
2023-02-11T23:43:58.357Z,12.40
2023-02-11T23:46:28.562Z,17.13
2023-02-11T23:48:55.972Z,22.37
2023-02-11T23:51:23.875Z,19.80
2023-02-11T23:53:52.589Z,25.03
2023-02-11T23:56:23.663Z,18.03
2023-02-11T23:58:54.787Z,12.97
